Time,TemperatureF,DewpointF,PressureIn,WindDirection,WindDirectionDegrees,WindSpeedMPH,WindSpeedGustMPH,Humidity,HourlyPrecipIn,Conditions,Clouds,dailyrainin,SoftwareType,DateUTC
2013-02-24 00:04:00,27.0,18.2,30.17,North,355,0.0,2.0,69,0.00,CLR,SKC,0.00,WeatherDisplay:10.37,2013-02-24 07:04:00,
2013-02-24 00:09:00,27.1,18.3,30.17,North,355,0.0,0.0,69,0.00,CLR,SKC,0.00,WeatherDisplay:10.37,2013-02-24 07:09:00,
2013-02-24 00:14:00,27.2,18.0,30.18,North,355,1.1,0.0,68,0.00,CLR,SKC,0.00,WeatherDisplay:10.37,2013-02-24 07:14:00,
2013-02-24 00:19:00,27.3,18.1,30.18,NE,46,2.3,2.3,68,0.00,CLR,SKC,0.00,WeatherDisplay:10.37,2013-02-24 07:19:00,
2013-02-24 00:25:00,27.9,19.0,30.18,ENE,67,0.0,0.0,69,0.00,CLR,SKC,0.00,WeatherDisplay:10.37,2013-02-24 07:25:00,
2013-02-24 00:30:00,28.1,18.2,30.18,ENE,67,2.3,2.3,66,0.00,CLR,SKC,0.00,WeatherDisplay:10.37,2013-02-24 07:30:00,
2013-02-24 00:35:00,28.1,18.2,30.18,ENE,67,0.0,0.0,66,0.00,CLR,SKC,0.00,WeatherDisplay:10.37,2013-02-24 07:35:00,
2013-02-24 00:40:00,27.9,17.6,30.19,ENE,67,0.0,0.0,65,0.00,CLR,SKC,0.00,WeatherDisplay:10.37,2013-02-24 07:40:00,
2013-02-24 00:45:00,27.8,18.9,30.19,ENE,67,0.0,0.0,69,0.00,CLR,SKC,0.00,WeatherDisplay:10.37,2013-02-24 07:45:00,
2013-02-24 00:50:00,27.5,18.0,30.19,ENE,67,0.0,0.0,67,0.00,CLR,SKC,0.00,WeatherDisplay:10.37,2013-02-24 07:50:00,
2013-02-24 00:55:00,27.3,18.1,30.19,ENE,67,0.0,0.0,68,0.00,CLR,SKC,0.00,WeatherDisplay:10.37,2013-02-24 07:55:00,
2013-02-24 01:00:00,26.9,18.4,30.19,ENE,67,0.0,0.0,70,0.00,CLR,SKC,0.00,WeatherDisplay:10.37,2013-02-24 08:00:00,
2013-02-24 01:06:00,26.6,19.1,30.19,ENE,67,0.0,0.0,73,0.00,CLR,SKC,0.00,WeatherDisplay:10.37,2013-02-24 08:06:00,
2013-02-24 01:11:00,26.6,18.8,30.20,ENE,67,0.0,0.0,72,0.00,CLR,SKC,0.00,WeatherDisplay:10.37,2013-02-24 08:11:00,
2013-02-24 01:17:00,26.6,19.4,30.20,ENE,67,0.0,0.0,74,0.00,CLR,SKC,0.00,WeatherDisplay:10.37,2013-02-24 08:17:00,
2013-02-24 01:22:00,26.6,18.8,30.19,ENE,67,0.0,0.0,72,0.00,CLR,SKC,0.00,WeatherDisplay:10.37,2013-02-24 08:22:00,
2013-02-24 01:27:00,26.6,19.7,30.20,ENE,67,0.0,0.0,75,0.00,CLR,SKC,0.00,WeatherDisplay:10.37,2013-02-24 08:27:00,
2013-02-24 01:32:00,26.6,19.1,30.20,SW,219,2.3,2.3,73,0.00,CLR,SKC,0.00,WeatherDisplay:10.37,2013-02-24 08:32:00,
2013-02-24 01:37:00,26.7,18.9,30.20,SW,219,1.1,0.0,72,0.00,CLR,SKC,0.00,WeatherDisplay:10.37,2013-02-24 08:37:00,
2013-02-24 01:42:00,26.8,19.6,30.20,SW,219,0.0,0.1,74,0.00,CLR,SKC,0.00,WeatherDisplay:10.37,2013-02-24 08:42:00,
2013-02-24 01:47:00,26.8,19.0,30.20,SW,219,0.0,0.0,72,0.00,CLR,SKC,0.00,WeatherDisplay:10.37,2013-02-24 08:47:00,
2013-02-24 01:52:00,26.9,19.7,30.20,SW,219,0.0,0.0,74,0.00,CLR,SKC,0.00,WeatherDisplay:10.37,2013-02-24 08:52:00,
2013-02-24 01:57:00,27.0,19.8,30.20,SW,219,1.1,0.0,74,0.00,CLR,SKC,0.00,WeatherDisplay:10.37,2013-02-24 08:57:00,
2013-02-24 02:02:00,27.0,20.1,30.20,SW,219,2.3,0.0,75,0.00,CLR,SKC,0.00,WeatherDisplay:10.37,2013-02-24 09:02:00,
2013-02-24 02:07:00,27.0,20.1,30.21,SW,219,0.0,0.0,75,0.00,CLR,SKC,0.00,WeatherDisplay:10.37,2013-02-24 09:07:00,
2013-02-24 02:12:00,27.2,20.9,30.21,SW,219,0.0,0.0,77,0.00,CLR,SKC,0.00,WeatherDisplay:10.37,2013-02-24 09:12:00,
2013-02-24 02:17:00,27.3,21.0,30.21,SW,219,0.0,0.0,77,0.00,CLR,SKC,0.00,WeatherDisplay:10.37,2013-02-24 09:17:00,
2013-02-24 02:22:00,27.3,20.1,30.21,SW,219,0.0,0.0,74,0.00,CLR,SKC,0.00,WeatherDisplay:10.37,2013-02-24 09:22:00,
2013-02-24 02:27:00,27.4,20.5,30.21,SW,219,0.0,0.0,75,0.00,CLR,SKC,0.00,WeatherDisplay:10.37,2013-02-24 09:27:00,
2013-02-24 02:33:00,27.6,21.3,30.21,SW,219,0.0,0.0,77,0.00,CLR,SKC,0.00,WeatherDisplay:10.37,2013-02-24 09:33:00,
2013-02-24 02:38:00,27.6,21.6,30.21,SW,219,0.0,0.0,78,0.00,CLR,SKC,0.00,WeatherDisplay:10.37,2013-02-24 09:38:00,
2013-02-24 02:43:00,27.6,21.3,30.22,SW,219,0.0,0.0,77,0.00,CLR,SKC,0.00,WeatherDisplay:10.37,2013-02-24 09:43:00,
2013-02-24 02:48:00,27.7,21.4,30.22,SW,219,0.0,0.0,77,0.00,CLR,SKC,0.00,WeatherDisplay:10.37,2013-02-24 09:48:00,
2013-02-24 02:53:00,27.6,21.0,30.22,SW,219,0.0,0.0,76,0.00,CLR,SKC,0.00,WeatherDisplay:10.37,2013-02-24 09:53:00,
2013-02-24 02:58:00,27.7,21.4,30.23,SW,219,1.1,1.1,77,0.00,CLR,SKC,0.00,WeatherDisplay:10.37,2013-02-24 09:58:00,
2013-02-24 03:04:00,27.7,20.5,30.22,SW,219,0.0,0.0,74,0.00,CLR,SKC,0.00,WeatherDisplay:10.37,2013-02-24 10:04:00,
2013-02-24 03:09:00,27.7,19.8,30.22,South,178,1.1,1.1,72,0.00,CLR,SKC,0.00,WeatherDisplay:10.37,2013-02-24 10:09:00,
2013-02-24 03:14:00,27.9,21.0,30.22,South,178,0.0,0.0,75,0.00,CLR,SKC,0.00,WeatherDisplay:10.37,2013-02-24 10:14:00,
2013-02-24 03:19:00,27.8,20.6,30.22,South,178,0.0,0.0,74,0.00,CLR,SKC,0.00,WeatherDisplay:10.37,2013-02-24 10:19:00,
2013-02-24 03:24:00,27.8,20.0,30.22,South,178,0.0,1.0,72,0.00,CLR,SKC,0.00,WeatherDisplay:10.37,2013-02-24 10:24:00,
2013-02-24 03:29:00,28.0,21.1,30.22,South,178,0.0,1.0,75,0.00,CLR,SKC,0.00,WeatherDisplay:10.37,2013-02-24 10:29:00,
2013-02-24 03:34:00,28.0,20.8,30.22,South,178,0.0,0.0,74,0.00,CLR,SKC,0.00,WeatherDisplay:10.37,2013-02-24 10:34:00,
2013-02-24 03:39:00,27.9,20.0,30.22,South,178,0.0,0.0,72,0.00,CLR,SKC,0.00,WeatherDisplay:10.37,2013-02-24 10:39:00,
2013-02-24 03:44:00,28.0,19.8,30.22,South,178,0.0,0.0,71,0.00,CLR,SKC,0.00,WeatherDisplay:10.37,2013-02-24 10:44:00,
2013-02-24 03:49:00,28.1,19.6,30.22,South,178,0.0,0.0,70,0.00,CLR,SKC,0.00,WeatherDisplay:10.37,2013-02-24 10:49:00,
2013-02-24 03:55:00,28.2,20.0,30.23,South,178,1.1,1.1,71,0.00,CLR,SKC,0.00,WeatherDisplay:10.37,2013-02-24 10:55:00,
2013-02-24 04:00:00,28.2,19.3,30.23,SSW,194,2.3,2.3,69,0.00,CLR,SKC,0.00,WeatherDisplay:10.37,2013-02-24 11:00:00,
2013-02-24 04:05:00,28.1,19.2,30.23,SSW,194,0.0,0.0,69,0.00,CLR,SKC,0.00,WeatherDisplay:10.37,2013-02-24 11:05:00,
2013-02-24 04:10:00,28.1,19.2,30.23,SSW,194,0.0,0.0,69,0.00,CLR,SKC,0.00,WeatherDisplay:10.37,2013-02-24 11:10:00,
2013-02-24 04:15:00,28.0,18.8,30.23,SSW,194,0.0,0.1,68,0.00,CLR,SKC,0.00,WeatherDisplay:10.37,2013-02-24 11:15:00,
2013-02-24 04:20:00,27.9,19.7,30.23,NW,314,2.3,2.3,71,0.00,CLR,SKC,0.00,WeatherDisplay:10.37,2013-02-24 11:20:00,
2013-02-24 04:25:00,27.7,19.8,30.23,SW,217,2.3,2.3,72,0.00,CLR,SKC,0.00,WeatherDisplay:10.37,2013-02-24 11:25:00,
2013-02-24 04:30:00,27.6,18.8,30.24,SSW,202,1.1,1.1,69,0.00,CLR,SKC,0.00,WeatherDisplay:10.37,2013-02-24 11:30:00,
2013-02-24 04:35:00,27.8,20.3,30.24,SW,221,2.3,2.3,73,0.00,CLR,SKC,0.00,WeatherDisplay:10.37,2013-02-24 11:35:00,
2013-02-24 04:40:00,27.7,19.2,30.24,SW,221,0.0,0.0,70,0.00,CLR,SKC,0.00,WeatherDisplay:10.37,2013-02-24 11:40:00,
2013-02-24 04:46:00,27.6,19.8,30.23,SW,221,0.0,0.0,72,0.00,CLR,SKC,0.00,WeatherDisplay:10.37,2013-02-24 11:46:00,
2013-02-24 04:51:00,27.6,19.8,30.24,South,181,1.1,0.0,72,0.00,CLR,SKC,0.00,WeatherDisplay:10.37,2013-02-24 11:51:00,
2013-02-24 04:56:00,27.6,19.1,30.24,South,181,1.1,0.0,70,0.00,CLR,SKC,0.00,WeatherDisplay:10.37,2013-02-24 11:56:00,
2013-02-24 05:01:00,27.6,20.4,30.24,South,181,0.0,0.0,74,0.00,CLR,SKC,0.00,WeatherDisplay:10.37,2013-02-24 12:01:00,
2013-02-24 05:06:00,27.5,20.0,30.24,South,181,0.0,0.0,73,0.00,CLR,SKC,0.00,WeatherDisplay:10.37,2013-02-24 12:06:00,
2013-02-24 05:11:00,27.3,19.5,30.24,South,181,0.0,0.0,72,0.00,CLR,SKC,0.00,WeatherDisplay:10.37,2013-02-24 12:11:00,
2013-02-24 05:17:00,27.3,19.1,30.24,South,181,0.0,0.0,71,0.00,CLR,SKC,0.00,WeatherDisplay:10.37,2013-02-24 12:17:00,
2013-02-24 05:22:00,27.3,19.1,30.25,South,181,0.0,0.0,71,0.00,CLR,SKC,0.00,WeatherDisplay:10.37,2013-02-24 12:22:00,
2013-02-24 05:27:00,27.3,20.1,30.25,South,181,1.1,1.1,74,0.00,CLR,SKC,0.00,WeatherDisplay:10.37,2013-02-24 12:27:00,
2013-02-24 05:32:00,27.1,19.6,30.25,South,181,0.0,0.0,73,0.00,CLR,SKC,0.00,WeatherDisplay:10.37,2013-02-24 12:32:00,
2013-02-24 05:37:00,27.0,19.8,30.25,South,181,0.0,0.0,74,0.00,CLR,SKC,0.00,WeatherDisplay:10.37,2013-02-24 12:37:00,
2013-02-24 05:43:00,26.9,20.7,30.25,South,181,0.0,0.0,77,0.00,CLR,SKC,0.00,WeatherDisplay:10.37,2013-02-24 12:43:00,
2013-02-24 05:48:00,26.7,20.8,30.26,South,181,0.0,0.0,78,0.00,CLR,SKC,0.00,WeatherDisplay:10.37,2013-02-24 12:48:00,
2013-02-24 05:53:00,26.7,20.1,30.26,South,181,0.0,0.0,76,0.00,CLR,SKC,0.00,WeatherDisplay:10.37,2013-02-24 12:53:00,
2013-02-24 05:59:00,26.6,20.7,30.26,South,181,0.0,0.0,78,0.00,CLR,SKC,0.00,WeatherDisplay:10.37,2013-02-24 12:59:00,
2013-02-24 06:04:00,26.5,20.6,30.26,South,181,0.0,0.0,78,0.00,CLR,SKC,0.00,WeatherDisplay:10.37,2013-02-24 13:04:00,
2013-02-24 06:09:00,26.4,20.8,30.26,South,181,0.0,0.0,79,0.00,CLR,SKC,0.00,WeatherDisplay:10.37,2013-02-24 13:09:00,
2013-02-24 06:14:00,26.3,20.4,30.26,South,181,0.0,0.0,78,0.00,CLR,SKC,0.00,WeatherDisplay:10.37,2013-02-24 13:14:00,
2013-02-24 06:19:00,26.2,20.6,30.26,South,181,0.0,0.0,79,0.00,CLR,SKC,0.00,WeatherDisplay:10.37,2013-02-24 13:19:00,
2013-02-24 06:24:00,26.0,20.7,30.26,South,181,0.0,0.0,80,0.00,CLR,SKC,0.00,WeatherDisplay:10.37,2013-02-24 13:24:00,
2013-02-24 06:30:00,25.8,20.2,30.26,South,181,0.0,0.0,79,0.00,CLR,SKC,0.00,WeatherDisplay:10.37,2013-02-24 13:30:00,
2013-02-24 06:35:00,25.7,20.4,30.26,South,181,0.0,0.0,80,0.00,CLR,SKC,0.00,WeatherDisplay:10.37,2013-02-24 13:35:00,
2013-02-24 06:41:00,25.6,20.3,30.26,South,181,0.0,0.0,80,0.00,CLR,SKC,0.00,WeatherDisplay:10.37,2013-02-24 13:41:00,
2013-02-24 06:46:00,25.6,20.3,30.25,South,181,1.1,0.0,80,0.00,CLR,SKC,0.00,WeatherDisplay:10.37,2013-02-24 13:46:00,
2013-02-24 06:51:00,25.6,20.3,30.25,South,186,2.3,2.3,80,0.00,CLR,SKC,0.00,WeatherDisplay:10.37,2013-02-24 13:51:00,
2013-02-24 06:57:00,25.5,19.6,30.26,South,173,1.1,1.1,78,0.00,CLR,SKC,0.00,WeatherDisplay:10.37,2013-02-24 13:57:00,
2013-02-24 07:02:00,25.8,20.5,30.26,South,173,1.1,0.0,80,0.00,CLR,SKC,0.00,WeatherDisplay:10.37,2013-02-24 14:02:00,
2013-02-24 07:07:00,25.9,19.7,30.26,South,186,4.0,4.0,77,0.00,CLR,SKC,0.00,WeatherDisplay:10.37,2013-02-24 14:07:00,
2013-02-24 07:12:00,26.6,18.5,30.25,South,181,3.5,3.5,71,0.00,CLR,SKC,0.00,WeatherDisplay:10.37,2013-02-24 14:12:00,
2013-02-24 07:17:00,27.5,18.7,30.26,South,181,2.3,2.3,69,0.00,CLR,SKC,0.00,WeatherDisplay:10.37,2013-02-24 14:17:00,
2013-02-24 07:22:00,27.8,18.6,30.26,SSE,168,0.0,0.0,68,0.00,CLR,SKC,0.00,WeatherDisplay:10.37,2013-02-24 14:22:00,
2013-02-24 07:27:00,28.0,18.5,30.26,SW,223,2.0,2.0,67,0.00,CLR,SKC,0.00,WeatherDisplay:10.37,2013-02-24 14:27:00,
2013-02-24 07:32:00,28.0,18.5,30.26,SSW,207,3.5,3.5,67,0.00,CLR,SKC,0.00,WeatherDisplay:10.37,2013-02-24 14:32:00,
2013-02-24 07:37:00,28.0,18.5,30.26,South,182,2.3,2.3,67,0.00,CLR,SKC,0.00,WeatherDisplay:10.37,2013-02-24 14:37:00,
2013-02-24 07:42:00,28.0,18.5,30.26,South,175,2.3,2.3,67,0.00,CLR,SKC,0.00,WeatherDisplay:10.37,2013-02-24 14:42:00,
2013-02-24 07:48:00,27.9,18.7,30.26,South,186,2.3,2.3,68,0.00,CLR,SKC,0.00,WeatherDisplay:10.37,2013-02-24 14:48:00,
2013-02-24 07:53:00,27.8,18.9,30.26,SSW,195,1.0,3.0,69,0.00,CLR,SKC,0.00,WeatherDisplay:10.37,2013-02-24 14:53:00,
2013-02-24 07:59:00,27.8,18.9,30.26,WSW,238,1.1,0.0,69,0.00,CLR,SKC,0.00,WeatherDisplay:10.37,2013-02-24 14:59:00,
2013-02-24 08:05:00,27.9,19.0,30.26,WSW,238,2.3,2.3,69,0.00,CLR,SKC,0.00,WeatherDisplay:10.37,2013-02-24 15:05:00,
2013-02-24 08:10:00,27.9,19.0,30.26,SW,225,2.3,2.3,69,0.00,CLR,SKC,0.00,WeatherDisplay:10.37,2013-02-24 15:10:00,
2013-02-24 08:14:00,28.0,18.8,30.26,WSW,244,3.5,3.5,68,0.00,CLR,SKC,0.00,WeatherDisplay:10.37,2013-02-24 15:14:00,
2013-02-24 08:19:00,28.1,18.5,30.26,SW,216,2.3,2.3,67,0.00,CLR,SKC,0.00,WeatherDisplay:10.37,2013-02-24 15:19:00,
2013-02-24 08:24:00,28.3,18.4,30.26,SSW,196,2.3,2.3,66,0.00,CLR,SKC,0.00,WeatherDisplay:10.37,2013-02-24 15:24:00,
2013-02-24 08:29:00,28.4,19.2,30.26,SW,225,2.3,2.3,68,0.00,CLR,SKC,0.00,WeatherDisplay:10.37,2013-02-24 15:29:00,
2013-02-24 08:34:00,28.5,19.3,30.26,SW,220,0.0,0.0,68,0.00,CLR,SKC,0.00,WeatherDisplay:10.37,2013-02-24 15:34:00,
2013-02-24 08:39:00,28.8,19.2,30.26,SW,232,3.5,3.5,67,0.00,CLR,SKC,0.00,WeatherDisplay:10.37,2013-02-24 15:39:00,
2013-02-24 08:44:00,29.2,19.6,30.26,SSW,207,2.3,2.3,67,0.00,CLR,SKC,0.00,WeatherDisplay:10.37,2013-02-24 15:44:00,
2013-02-24 08:50:00,29.3,19.0,30.27,SSW,212,3.0,3.0,65,0.00,CLR,SKC,0.00,WeatherDisplay:10.37,2013-02-24 15:50:00,
2013-02-24 08:56:00,29.5,19.2,30.27,WSW,240,3.5,3.5,65,0.00,CLR,SKC,0.00,WeatherDisplay:10.37,2013-02-24 15:56:00,
2013-02-24 09:01:00,29.7,19.0,30.27,South,184,2.3,2.3,64,0.00,CLR,SKC,0.00,WeatherDisplay:10.37,2013-02-24 16:01:00,
2013-02-24 09:06:00,30.1,19.4,30.27,South,184,2.3,2.3,64,0.00,CLR,SKC,0.00,WeatherDisplay:10.37,2013-02-24 16:06:00,
2013-02-24 09:11:00,30.3,19.6,30.27,WSW,244,3.0,3.0,64,0.00,CLR,SKC,0.00,WeatherDisplay:10.37,2013-02-24 16:11:00,
2013-02-24 09:17:00,30.6,19.5,30.27,WSW,253,4.0,4.0,63,0.00,CLR,SKC,0.00,WeatherDisplay:10.37,2013-02-24 16:17:00,
2013-02-24 09:22:00,30.9,19.4,30.28,SW,229,4.6,4.6,62,0.00,CLR,SKC,0.00,WeatherDisplay:10.37,2013-02-24 16:22:00,
2013-02-24 09:28:00,31.2,19.3,30.28,SW,220,2.3,0.0,61,0.00,CLR,SKC,0.00,WeatherDisplay:10.37,2013-02-24 16:28:00,
2013-02-24 09:33:00,31.5,20.0,30.28,South,183,3.5,3.5,62,0.00,CLR,SKC,0.00,WeatherDisplay:10.37,2013-02-24 16:33:00,
2013-02-24 09:39:00,31.9,20.0,30.27,SSW,213,2.0,5.0,61,0.00,CLR,SKC,0.00,WeatherDisplay:10.37,2013-02-24 16:39:00,
2013-02-24 09:44:00,32.3,20.0,30.27,SW,234,5.0,5.0,60,0.00,CLR,SKC,0.00,WeatherDisplay:10.37,2013-02-24 16:44:00,
2013-02-24 09:49:00,32.8,20.4,30.28,South,170,4.6,4.6,60,0.00,CLR,SKC,0.00,WeatherDisplay:10.37,2013-02-24 16:49:00,
2013-02-24 09:54:00,33.0,19.8,30.28,South,171,3.0,3.0,58,0.00,CLR,SKC,0.00,WeatherDisplay:10.37,2013-02-24 16:54:00,
2013-02-24 09:59:00,33.1,19.9,30.28,SSW,210,5.8,5.8,58,0.00,CLR,SKC,0.00,WeatherDisplay:10.37,2013-02-24 16:59:00,
2013-02-24 10:05:00,33.3,20.1,30.28,SSW,200,5.0,5.0,58,0.00,CLR,SKC,0.00,WeatherDisplay:10.37,2013-02-24 17:05:00,
2013-02-24 10:10:00,33.9,20.3,30.28,SSW,211,4.0,4.0,57,0.00,CLR,SKC,0.00,WeatherDisplay:10.37,2013-02-24 17:10:00,
2013-02-24 10:15:00,34.1,20.0,30.28,NW,313,1.1,1.1,56,0.00,CLR,SKC,0.00,WeatherDisplay:10.37,2013-02-24 17:15:00,
2013-02-24 10:20:00,34.4,20.3,30.28,SW,220,6.9,6.9,56,0.00,CLR,SKC,0.00,WeatherDisplay:10.37,2013-02-24 17:20:00,
2013-02-24 10:25:00,34.8,20.3,30.28,WSW,254,8.1,8.1,55,0.00,CLR,SKC,0.00,WeatherDisplay:10.37,2013-02-24 17:25:00,
2013-02-24 10:30:00,35.2,19.3,30.28,South,185,10.4,10.4,52,0.00,CLR,SKC,0.00,WeatherDisplay:10.37,2013-02-24 17:30:00,
2013-02-24 10:35:00,35.5,20.5,30.28,SW,229,6.0,6.0,54,0.00,CLR,SKC,0.00,WeatherDisplay:10.37,2013-02-24 17:35:00,
2013-02-24 10:40:00,35.7,20.2,30.28,West,278,4.6,4.6,53,0.00,CLR,SKC,0.00,WeatherDisplay:10.37,2013-02-24 17:40:00,
2013-02-24 10:45:00,36.0,20.1,30.28,WNW,288,3.5,3.5,52,0.00,CLR,SKC,0.00,WeatherDisplay:10.37,2013-02-24 17:45:00,
2013-02-24 10:50:00,35.8,18.5,30.28,SW,218,11.5,11.5,49,0.00,CLR,SKC,0.00,WeatherDisplay:10.37,2013-02-24 17:50:00,
2013-02-24 10:55:00,35.8,18.5,30.27,SW,217,6.9,6.9,49,0.00,CLR,SKC,0.00,WeatherDisplay:10.37,2013-02-24 17:55:00,
2013-02-24 11:00:00,36.0,19.1,30.28,WSW,240,4.6,4.6,50,0.00,CLR,SKC,0.00,WeatherDisplay:10.37,2013-02-24 18:00:00,
2013-02-24 11:05:00,36.3,19.9,30.27,West,268,8.0,8.0,51,0.00,CLR,SKC,0.00,WeatherDisplay:10.37,2013-02-24 18:05:00,
2013-02-24 11:11:00,36.7,19.3,30.27,SSW,208,4.6,4.6,49,0.00,CLR,SKC,0.00,WeatherDisplay:10.37,2013-02-24 18:11:00,
2013-02-24 11:16:00,36.2,19.8,30.27,West,260,6.9,6.9,51,0.00,CLR,SKC,0.00,WeatherDisplay:10.37,2013-02-24 18:16:00,
2013-02-24 11:21:00,36.1,20.6,30.27,WSW,243,4.0,4.0,53,0.00,CLR,SKC,0.00,WeatherDisplay:10.37,2013-02-24 18:21:00,
2013-02-24 11:26:00,36.2,20.2,30.27,NNW,344,5.8,5.8,52,0.00,CLR,SKC,0.00,WeatherDisplay:10.37,2013-02-24 18:26:00,
2013-02-24 11:31:00,36.7,19.8,30.27,SW,222,9.2,9.2,50,0.00,CLR,SKC,0.00,WeatherDisplay:10.37,2013-02-24 18:31:00,
2013-02-24 11:36:00,37.0,19.1,30.27,SW,236,11.5,11.5,48,0.00,CLR,SKC,0.00,WeatherDisplay:10.37,2013-02-24 18:36:00,
2013-02-24 11:41:00,36.8,19.9,30.27,SSW,209,7.0,7.0,50,0.00,CLR,SKC,0.00,WeatherDisplay:10.37,2013-02-24 18:41:00,
2013-02-24 11:46:00,36.4,19.0,30.27,SW,233,8.1,8.1,49,0.00,CLR,SKC,0.00,WeatherDisplay:10.37,2013-02-24 18:46:00,
2013-02-24 11:51:00,36.1,20.2,30.27,WNW,289,5.8,5.8,52,0.00,CLR,SKC,0.00,WeatherDisplay:10.37,2013-02-24 18:51:00,
2013-02-24 11:56:00,36.6,20.6,30.27,West,264,5.0,5.0,52,0.00,CLR,SKC,0.00,WeatherDisplay:10.37,2013-02-24 18:56:00,
2013-02-24 12:02:00,36.7,19.8,30.27,WNW,283,4.6,4.6,50,0.00,CLR,SKC,0.00,WeatherDisplay:10.37,2013-02-24 19:02:00,
2013-02-24 12:07:00,37.1,20.2,30.26,SW,220,5.0,5.0,50,0.00,CLR,SKC,0.00,WeatherDisplay:10.37,2013-02-24 19:07:00,
2013-02-24 12:12:00,36.6,19.7,30.26,WSW,241,6.9,6.9,50,0.00,CLR,SKC,0.00,WeatherDisplay:10.37,2013-02-24 19:12:00,
2013-02-24 12:17:00,36.7,19.3,30.25,SW,222,6.9,6.9,49,0.00,CLR,SKC,0.00,WeatherDisplay:10.37,2013-02-24 19:17:00,
2013-02-24 12:23:00,37.0,19.1,30.25,SW,229,5.8,5.8,48,0.00,CLR,SKC,0.00,WeatherDisplay:10.37,2013-02-24 19:23:00,
2013-02-24 12:28:00,36.9,18.5,30.25,West,267,4.6,4.6,47,0.00,CLR,SKC,0.00,WeatherDisplay:10.37,2013-02-24 19:28:00,
2013-02-24 12:33:00,36.7,18.8,30.25,WSW,248,6.9,6.9,48,0.00,CLR,SKC,0.00,WeatherDisplay:10.37,2013-02-24 19:33:00,
2013-02-24 12:38:00,37.3,19.4,30.25,WSW,252,10.4,10.4,48,0.00,CLR,SKC,0.00,WeatherDisplay:10.37,2013-02-24 19:38:00,
2013-02-24 12:43:00,37.8,19.3,30.24,WNW,297,3.5,3.5,47,0.00,CLR,SKC,0.00,WeatherDisplay:10.37,2013-02-24 19:43:00,
2013-02-24 12:48:00,38.2,19.2,30.24,SW,235,2.0,10.0,46,0.00,CLR,SKC,0.00,WeatherDisplay:10.37,2013-02-24 19:48:00,
2013-02-24 12:54:00,38.3,19.3,30.23,WSW,246,11.5,11.5,46,0.00,CLR,SKC,0.00,WeatherDisplay:10.37,2013-02-24 19:54:00,
2013-02-24 13:00:00,37.9,18.9,30.23,SSW,201,8.1,8.1,46,0.00,CLR,SKC,0.00,WeatherDisplay:10.37,2013-02-24 20:00:00,
2013-02-24 13:05:00,37.1,18.7,30.23,West,265,5.8,5.8,47,0.00,CLR,SKC,0.00,WeatherDisplay:10.37,2013-02-24 20:05:00,
2013-02-24 13:09:00,36.9,19.0,30.23,SW,227,4.6,4.6,48,0.00,CLR,SKC,0.00,WeatherDisplay:10.37,2013-02-24 20:09:00,
2013-02-24 13:14:00,37.1,19.2,30.23,SW,225,8.1,8.1,48,0.00,CLR,SKC,0.00,WeatherDisplay:10.37,2013-02-24 20:14:00,
2013-02-24 13:19:00,37.6,19.2,30.22,South,185,10.0,10.0,47,0.00,CLR,SKC,0.00,WeatherDisplay:10.37,2013-02-24 20:19:00,
2013-02-24 13:24:00,37.1,17.7,30.23,WSW,240,4.6,4.6,45,0.00,CLR,SKC,0.00,WeatherDisplay:10.37,2013-02-24 20:24:00,
2013-02-24 13:29:00,37.1,18.2,30.22,WSW,255,9.2,9.2,46,0.00,CLR,SKC,0.00,WeatherDisplay:10.37,2013-02-24 20:29:00,
2013-02-24 13:34:00,37.7,18.2,30.22,West,273,6.9,6.9,45,0.00,CLR,SKC,0.00,WeatherDisplay:10.37,2013-02-24 20:34:00,
2013-02-24 13:39:00,38.3,18.3,30.22,West,271,5.8,5.8,44,0.00,CLR,SKC,0.00,WeatherDisplay:10.37,2013-02-24 20:39:00,
2013-02-24 13:44:00,39.1,19.0,30.22,WSW,246,5.8,5.8,44,0.00,CLR,SKC,0.00,WeatherDisplay:10.37,2013-02-24 20:44:00,
2013-02-24 13:49:00,39.2,18.5,30.22,SW,215,10.0,10.0,43,0.00,CLR,SKC,0.00,WeatherDisplay:10.37,2013-02-24 20:49:00,
2013-02-24 13:55:00,37.7,18.2,30.22,WSW,246,8.1,8.1,45,0.00,CLR,SKC,0.00,WeatherDisplay:10.37,2013-02-24 20:55:00,
2013-02-24 14:01:00,37.9,18.4,30.22,SW,232,5.8,5.8,45,0.00,CLR,SKC,0.00,WeatherDisplay:10.37,2013-02-24 21:01:00,
2013-02-24 14:06:00,37.4,18.5,30.22,SSW,194,7.0,7.0,46,0.00,CLR,SKC,0.00,WeatherDisplay:10.37,2013-02-24 21:06:00,
2013-02-24 14:11:00,37.1,18.2,30.21,WSW,240,10.4,10.4,46,0.00,CLR,SKC,0.00,WeatherDisplay:10.37,2013-02-24 21:11:00,
2013-02-24 14:16:00,38.0,19.5,30.21,West,259,6.9,6.9,47,0.00,CLR,SKC,0.00,WeatherDisplay:10.37,2013-02-24 21:16:00,
2013-02-24 14:21:00,38.5,19.0,30.21,SW,229,3.5,3.5,45,0.00,CLR,SKC,0.00,WeatherDisplay:10.37,2013-02-24 21:21:00,
2013-02-24 14:26:00,38.2,18.7,30.21,WSW,257,4.6,4.6,45,0.00,CLR,SKC,0.00,WeatherDisplay:10.37,2013-02-24 21:26:00,
2013-02-24 14:31:00,37.7,19.3,30.21,WSW,238,4.6,4.6,47,0.00,CLR,SKC,0.00,WeatherDisplay:10.37,2013-02-24 21:31:00,
2013-02-24 14:36:00,37.5,19.1,30.20,SW,221,6.9,6.9,47,0.00,CLR,SKC,0.00,WeatherDisplay:10.37,2013-02-24 21:36:00,
2013-02-24 14:42:00,37.2,18.8,30.20,SW,217,8.1,8.1,47,0.00,CLR,SKC,0.00,WeatherDisplay:10.37,2013-02-24 21:42:00,
2013-02-24 14:47:00,37.2,19.3,30.20,WSW,239,5.8,5.8,48,0.00,CLR,SKC,0.00,WeatherDisplay:10.37,2013-02-24 21:47:00,
2013-02-24 14:52:00,37.5,20.1,30.20,SSW,209,5.0,5.0,49,0.00,CLR,SKC,0.00,WeatherDisplay:10.37,2013-02-24 21:52:00,
2013-02-24 14:57:00,37.9,18.9,30.20,SW,227,10.4,10.4,46,0.00,CLR,SKC,0.00,WeatherDisplay:10.37,2013-02-24 21:57:00,
2013-02-24 15:02:00,37.8,19.3,30.19,SSW,211,9.2,9.2,47,0.00,CLR,SKC,0.00,WeatherDisplay:10.37,2013-02-24 22:02:00,
2013-02-24 15:07:00,37.6,19.7,30.19,SW,220,9.2,9.2,48,0.00,CLR,SKC,0.00,WeatherDisplay:10.37,2013-02-24 22:07:00,
2013-02-24 15:13:00,37.4,19.5,30.19,SW,223,9.2,9.2,48,0.00,CLR,SKC,0.00,WeatherDisplay:10.37,2013-02-24 22:13:00,
2013-02-24 15:18:00,37.0,19.6,30.19,WSW,250,8.1,8.1,49,0.00,CLR,SKC,0.00,WeatherDisplay:10.37,2013-02-24 22:18:00,
2013-02-24 15:23:00,37.0,19.6,30.19,SW,227,10.4,10.4,49,0.00,CLR,SKC,0.00,WeatherDisplay:10.37,2013-02-24 22:23:00,
2013-02-24 15:28:00,37.1,20.2,30.19,West,259,11.5,11.5,50,0.00,CLR,SKC,0.00,WeatherDisplay:10.37,2013-02-24 22:28:00,
2013-02-24 15:33:00,37.1,20.2,30.19,West,271,3.5,3.5,50,0.00,CLR,SKC,0.00,WeatherDisplay:10.37,2013-02-24 22:33:00,
2013-02-24 15:39:00,37.0,20.1,30.19,West,273,2.0,4.0,50,0.00,CLR,SKC,0.00,WeatherDisplay:10.37,2013-02-24 22:39:00,
2013-02-24 15:44:00,37.1,20.2,30.19,SW,215,5.8,5.8,50,0.00,CLR,SKC,0.00,WeatherDisplay:10.37,2013-02-24 22:44:00,
2013-02-24 15:49:00,37.1,20.6,30.19,West,267,3.5,3.5,51,0.00,CLR,SKC,0.00,WeatherDisplay:10.37,2013-02-24 22:49:00,
2013-02-24 15:55:00,37.0,19.6,30.19,WSW,251,3.5,3.5,49,0.00,CLR,SKC,0.00,WeatherDisplay:10.37,2013-02-24 22:55:00,
2013-02-24 16:00:00,37.0,19.6,30.19,SW,225,6.9,6.9,49,0.00,CLR,SKC,0.00,WeatherDisplay:10.37,2013-02-24 23:00:00,
2013-02-24 16:05:00,36.9,19.5,30.19,SW,228,5.0,5.0,49,0.00,CLR,SKC,0.00,WeatherDisplay:10.37,2013-02-24 23:05:00,
2013-02-24 16:10:00,36.9,19.0,30.18,SSW,208,10.4,10.4,48,0.00,CLR,SKC,0.00,WeatherDisplay:10.37,2013-02-24 23:10:00,
2013-02-24 16:15:00,37.0,19.1,30.19,SW,234,6.9,6.9,48,0.00,CLR,SKC,0.00,WeatherDisplay:10.37,2013-02-24 23:15:00,
2013-02-24 16:20:00,37.1,19.7,30.19,SSW,206,6.9,6.9,49,0.00,CLR,SKC,0.00,WeatherDisplay:10.37,2013-02-24 23:20:00,
2013-02-24 16:25:00,37.2,19.8,30.19,SW,221,5.8,5.8,49,0.00,CLR,SKC,0.00,WeatherDisplay:10.37,2013-02-24 23:25:00,
2013-02-24 16:30:00,37.2,19.8,30.19,SW,232,9.2,9.2,49,0.00,CLR,SKC,0.00,WeatherDisplay:10.37,2013-02-24 23:30:00,
2013-02-24 16:35:00,37.4,20.0,30.19,SW,218,6.9,6.9,49,0.00,CLR,SKC,0.00,WeatherDisplay:10.37,2013-02-24 23:35:00,
2013-02-24 16:40:00,37.9,20.4,30.19,WSW,253,8.1,8.1,49,0.00,CLR,SKC,0.00,WeatherDisplay:10.37,2013-02-24 23:40:00,
2013-02-24 16:45:00,38.0,20.5,30.19,SW,229,5.8,5.8,49,0.00,CLR,SKC,0.00,WeatherDisplay:10.37,2013-02-24 23:45:00,
2013-02-24 16:51:00,38.2,20.7,30.19,SW,223,6.0,6.0,49,0.00,CLR,SKC,0.00,WeatherDisplay:10.37,2013-02-24 23:51:00,
2013-02-24 16:57:00,37.8,20.8,30.19,SSW,212,5.8,5.8,50,0.00,CLR,SKC,0.00,WeatherDisplay:10.37,2013-02-24 23:57:00,
2013-02-24 17:02:00,37.5,20.5,30.19,WSW,254,4.6,4.6,50,0.00,CLR,SKC,0.00,WeatherDisplay:10.37,2013-02-25 00:02:00,
2013-02-24 17:07:00,37.4,20.4,30.19,SW,227,6.9,6.9,50,0.00,CLR,SKC,0.00,WeatherDisplay:10.37,2013-02-25 00:07:00,
2013-02-24 17:13:00,37.1,20.2,30.19,WSW,241,5.0,5.0,50,0.00,CLR,SKC,0.00,WeatherDisplay:10.37,2013-02-25 00:13:00,
2013-02-24 17:18:00,37.0,19.6,30.19,SSW,203,5.8,5.8,49,0.00,CLR,SKC,0.00,WeatherDisplay:10.37,2013-02-25 00:18:00,
2013-02-24 17:23:00,36.9,19.5,30.18,SSW,205,4.6,4.6,49,0.00,CLR,SKC,0.00,WeatherDisplay:10.37,2013-02-25 00:23:00,
2013-02-24 17:28:00,36.7,19.3,30.19,SW,222,4.6,4.6,49,0.00,CLR,SKC,0.00,WeatherDisplay:10.37,2013-02-25 00:28:00,
2013-02-24 17:33:00,36.5,20.1,30.19,WSW,240,5.8,5.8,51,0.00,CLR,SKC,0.00,WeatherDisplay:10.37,2013-02-25 00:33:00,
2013-02-24 17:38:00,36.3,19.4,30.18,SW,217,5.8,5.8,50,0.00,CLR,SKC,0.00,WeatherDisplay:10.37,2013-02-25 00:38:00,
2013-02-24 17:43:00,36.2,19.3,30.18,SW,232,7.0,10.0,50,0.00,CLR,SKC,0.00,WeatherDisplay:10.37,2013-02-25 00:43:00,
2013-02-24 17:48:00,36.1,19.7,30.18,SW,232,3.0,9.0,51,0.00,CLR,SKC,0.00,WeatherDisplay:10.37,2013-02-25 00:48:00,
2013-02-24 17:54:00,35.9,20.0,30.18,WSW,244,3.5,3.5,52,0.00,CLR,SKC,0.00,WeatherDisplay:10.37,2013-02-25 00:54:00,
2013-02-24 17:59:00,35.7,19.3,30.18,WSW,258,8.1,8.1,51,0.00,CLR,SKC,0.00,WeatherDisplay:10.37,2013-02-25 00:59:00,
2013-02-24 18:04:00,35.7,19.3,30.18,WSW,245,6.0,6.0,51,0.00,CLR,SKC,0.00,WeatherDisplay:10.37,2013-02-25 01:04:00,
2013-02-24 18:09:00,35.7,19.3,30.18,WSW,237,5.0,5.0,51,0.00,CLR,SKC,0.00,WeatherDisplay:10.37,2013-02-25 01:09:00,
2013-02-24 18:14:00,35.7,19.3,30.18,SSW,207,3.5,3.5,51,0.00,CLR,SKC,0.00,WeatherDisplay:10.37,2013-02-25 01:14:00,
2013-02-24 18:19:00,35.6,19.2,30.18,WSW,238,6.0,6.0,51,0.00,CLR,SKC,0.00,WeatherDisplay:10.37,2013-02-25 01:19:00,
2013-02-24 18:24:00,35.6,19.2,30.18,SW,231,9.2,9.2,51,0.00,CLR,SKC,0.00,WeatherDisplay:10.37,2013-02-25 01:24:00,
2013-02-24 18:29:00,35.6,19.2,30.18,SSW,211,11.5,11.5,51,0.00,CLR,SKC,0.00,WeatherDisplay:10.37,2013-02-25 01:29:00,
2013-02-24 18:35:00,35.5,19.1,30.18,WSW,255,3.5,4.6,51,0.00,CLR,SKC,0.00,WeatherDisplay:10.37,2013-02-25 01:35:00,
2013-02-24 18:40:00,35.5,18.7,30.18,SW,225,8.1,8.1,50,0.00,CLR,SKC,0.00,WeatherDisplay:10.37,2013-02-25 01:40:00,
2013-02-24 18:45:00,35.5,18.7,30.18,WSW,245,5.8,5.8,50,0.00,CLR,SKC,0.00,WeatherDisplay:10.37,2013-02-25 01:45:00,
2013-02-24 18:50:00,35.4,19.0,30.18,SW,225,3.5,3.5,51,0.00,CLR,SKC,0.00,WeatherDisplay:10.37,2013-02-25 01:50:00,
2013-02-24 18:56:00,35.3,18.5,30.18,SW,220,4.6,4.6,50,0.00,CLR,SKC,0.00,WeatherDisplay:10.37,2013-02-25 01:56:00,
2013-02-24 19:01:00,35.3,19.4,30.18,SW,226,3.5,3.5,52,0.00,CLR,SKC,0.00,WeatherDisplay:10.37,2013-02-25 02:01:00,
2013-02-24 19:06:00,35.2,19.3,30.18,SW,233,3.5,3.5,52,0.00,CLR,SKC,0.00,WeatherDisplay:10.37,2013-02-25 02:06:00,
2013-02-24 19:11:00,35.2,18.9,30.18,West,265,4.6,4.6,51,0.00,CLR,SKC,0.00,WeatherDisplay:10.37,2013-02-25 02:11:00,
2013-02-24 19:16:00,35.2,18.9,30.18,SW,227,3.5,3.5,51,0.00,CLR,SKC,0.00,WeatherDisplay:10.37,2013-02-25 02:16:00,
2013-02-24 19:21:00,35.3,19.0,30.18,SSW,205,3.5,3.5,51,0.00,CLR,SKC,0.00,WeatherDisplay:10.37,2013-02-25 02:21:00,
2013-02-24 19:26:00,35.2,19.3,30.18,West,270,4.6,4.6,52,0.00,CLR,SKC,0.00,WeatherDisplay:10.37,2013-02-25 02:26:00,
2013-02-24 19:31:00,35.3,18.5,30.18,SW,227,5.8,5.8,50,0.00,CLR,SKC,0.00,WeatherDisplay:10.37,2013-02-25 02:31:00,
2013-02-24 19:36:00,35.5,18.7,30.18,SW,234,1.1,1.1,50,0.00,CLR,SKC,0.00,WeatherDisplay:10.37,2013-02-25 02:36:00,
2013-02-24 19:41:00,35.3,18.5,30.18,SW,217,4.6,4.6,50,0.00,CLR,SKC,0.00,WeatherDisplay:10.37,2013-02-25 02:41:00,
2013-02-24 19:47:00,35.2,18.9,30.18,SW,226,2.3,2.3,51,0.00,CLR,SKC,0.00,WeatherDisplay:10.37,2013-02-25 02:47:00,
2013-02-24 19:52:00,34.8,18.9,30.18,WSW,240,1.1,1.1,52,0.00,CLR,SKC,0.00,WeatherDisplay:10.37,2013-02-25 02:52:00,
2013-02-24 19:57:00,34.7,18.9,30.18,SW,236,5.0,5.0,52,0.00,CLR,SKC,0.00,WeatherDisplay:10.37,2013-02-25 02:57:00,
2013-02-24 20:02:00,35.0,18.7,30.18,SW,223,4.0,4.0,51,0.00,CLR,SKC,0.00,WeatherDisplay:10.37,2013-02-25 03:02:00,
2013-02-24 20:08:00,35.4,18.1,30.18,SW,225,8.1,8.1,49,0.00,CLR,SKC,0.00,WeatherDisplay:10.37,2013-02-25 03:08:00,
2013-02-24 20:13:00,35.5,18.7,30.18,SW,233,2.3,2.3,50,0.00,CLR,SKC,0.00,WeatherDisplay:10.37,2013-02-25 03:13:00,
2013-02-24 20:18:00,35.3,18.5,30.18,West,264,3.5,3.5,50,0.00,CLR,SKC,0.00,WeatherDisplay:10.37,2013-02-25 03:18:00,
2013-02-24 20:23:00,35.2,18.4,30.18,SSW,206,2.3,0.0,50,0.00,CLR,SKC,0.00,WeatherDisplay:10.37,2013-02-25 03:23:00,
2013-02-24 20:29:00,35.3,18.9,30.17,WSW,243,1.0,6.0,51,0.00,CLR,SKC,0.00,WeatherDisplay:10.37,2013-02-25 03:29:00,
2013-02-24 20:34:00,34.2,17.9,30.17,NNW,330,0.0,0.0,51,0.00,CLR,SKC,0.00,WeatherDisplay:10.37,2013-02-25 03:34:00,
2013-02-24 20:39:00,33.8,18.9,30.17,NNW,337,0.0,0.0,54,0.00,CLR,SKC,0.00,WeatherDisplay:10.37,2013-02-25 03:39:00,
2013-02-24 20:45:00,33.0,19.0,30.17,NNW,337,0.0,0.0,56,0.00,CLR,SKC,0.00,WeatherDisplay:10.37,2013-02-25 03:45:00,
2013-02-24 20:50:00,32.3,18.8,30.17,NNW,337,0.0,0.0,57,0.00,CLR,SKC,0.00,WeatherDisplay:10.37,2013-02-25 03:50:00,
2013-02-24 20:56:00,31.8,18.7,30.17,NNW,339,0.0,0.0,58,0.00,CLR,SKC,0.00,WeatherDisplay:10.37,2013-02-25 03:56:00,
2013-02-24 21:01:00,31.5,18.4,30.17,NNW,339,0.0,0.0,58,0.00,CLR,SKC,0.00,WeatherDisplay:10.37,2013-02-25 04:01:00,
2013-02-24 21:06:00,31.4,19.5,30.17,NNW,339,0.0,0.0,61,0.00,CLR,SKC,0.00,WeatherDisplay:10.37,2013-02-25 04:06:00,
2013-02-24 21:11:00,31.2,18.5,30.17,NNW,339,0.0,0.0,59,0.00,CLR,SKC,0.00,WeatherDisplay:10.37,2013-02-25 04:11:00,
2013-02-24 21:16:00,31.1,20.3,30.17,NNW,339,0.0,0.0,64,0.00,CLR,SKC,0.00,WeatherDisplay:10.37,2013-02-25 04:16:00,
2013-02-24 21:21:00,30.7,20.3,30.17,NNW,339,0.0,0.0,65,0.00,CLR,SKC,0.00,WeatherDisplay:10.37,2013-02-25 04:21:00,
2013-02-24 21:26:00,30.4,20.0,30.17,NNW,339,0.0,0.0,65,0.00,CLR,SKC,0.00,WeatherDisplay:10.37,2013-02-25 04:26:00,
2013-02-24 21:32:00,30.1,20.8,30.17,NNW,339,0.0,0.0,68,0.00,CLR,SKC,0.00,WeatherDisplay:10.37,2013-02-25 04:32:00,
2013-02-24 21:37:00,29.6,19.6,30.16,NNW,339,0.0,0.0,66,0.00,CLR,SKC,0.00,WeatherDisplay:10.37,2013-02-25 04:37:00,
2013-02-24 21:42:00,29.3,20.0,30.16,NNW,339,0.0,0.0,68,0.00,CLR,SKC,0.00,WeatherDisplay:10.37,2013-02-25 04:42:00,
2013-02-24 21:47:00,29.1,19.5,30.16,NNW,339,0.0,0.1,67,0.00,CLR,SKC,0.00,WeatherDisplay:10.37,2013-02-25 04:47:00,
2013-02-24 21:53:00,28.7,20.1,30.16,NNW,339,0.0,0.0,70,0.00,CLR,SKC,0.00,WeatherDisplay:10.37,2013-02-25 04:53:00,
2013-02-24 21:58:00,28.3,19.4,30.16,NNW,339,0.0,0.0,69,0.00,CLR,SKC,0.00,WeatherDisplay:10.37,2013-02-25 04:58:00,
2013-02-24 22:00:00,28.2,19.7,30.16,NNW,339,0.0,0.0,70,0.00,CLR,SKC,0.00,WeatherDisplay:10.37,2013-02-25 05:00:00,
2013-02-24 22:01:00,28.1,20.2,30.16,NNW,339,0.0,0.0,72,0.00,CLR,SKC,0.00,WeatherDisplay:10.37,2013-02-25 05:01:00,
2013-02-24 22:02:00,28.1,19.9,30.16,NNW,339,0.0,0.0,71,0.00,CLR,SKC,0.00,WeatherDisplay:10.37,2013-02-25 05:02:00,
2013-02-24 22:03:00,28.0,19.1,30.16,NNW,339,0.0,0.0,69,0.00,CLR,SKC,0.00,WeatherDisplay:10.37,2013-02-25 05:03:00,
2013-02-24 22:08:00,27.8,18.9,30.16,NNW,339,0.0,0.0,69,0.00,CLR,SKC,0.00,WeatherDisplay:10.37,2013-02-25 05:08:00,
2013-02-24 22:13:00,27.6,19.1,30.16,NNW,337,2.3,2.3,70,0.00,CLR,SKC,0.00,WeatherDisplay:10.37,2013-02-25 05:13:00,
2013-02-24 22:18:00,27.4,18.9,30.16,NNW,337,0.0,0.0,70,0.00,CLR,SKC,0.00,WeatherDisplay:10.37,2013-02-25 05:18:00,
2013-02-24 22:23:00,27.2,18.7,30.16,NNW,337,0.0,1.0,70,0.00,CLR,SKC,0.00,WeatherDisplay:10.37,2013-02-25 05:23:00,
2013-02-24 22:28:00,27.1,18.9,30.16,NNW,337,0.0,0.0,71,0.00,CLR,SKC,0.00,WeatherDisplay:10.37,2013-02-25 05:28:00,
2013-02-24 22:34:00,26.9,19.1,30.16,NNW,337,0.0,0.0,72,0.00,CLR,SKC,0.00,WeatherDisplay:10.37,2013-02-25 05:34:00,
2013-02-24 22:38:00,26.8,19.3,30.16,NNW,337,0.0,0.0,73,0.00,CLR,SKC,0.00,WeatherDisplay:10.37,2013-02-25 05:38:00,
2013-02-24 22:43:00,26.7,19.2,30.16,NNW,337,0.0,0.0,73,0.00,CLR,SKC,0.00,WeatherDisplay:10.37,2013-02-25 05:43:00,
2013-02-24 22:48:00,26.6,19.7,30.16,NNW,337,0.0,0.0,75,0.00,CLR,SKC,0.00,WeatherDisplay:10.37,2013-02-25 05:48:00,
2013-02-24 22:53:00,26.6,19.7,30.15,NNW,337,0.0,0.0,75,0.00,CLR,SKC,0.00,WeatherDisplay:10.37,2013-02-25 05:53:00,
2013-02-24 22:58:00,26.3,19.8,30.15,NNW,337,0.0,0.0,76,0.00,CLR,SKC,0.00,WeatherDisplay:10.37,2013-02-25 05:58:00,
2013-02-24 23:03:00,26.2,19.0,30.15,NNW,337,0.0,0.0,74,0.00,CLR,SKC,0.00,WeatherDisplay:10.37,2013-02-25 06:03:00,
2013-02-24 23:08:00,26.1,19.9,30.15,NNW,337,0.0,0.0,77,0.00,CLR,SKC,0.00,WeatherDisplay:10.37,2013-02-25 06:08:00,
2013-02-24 23:13:00,26.0,19.8,30.15,NNW,337,0.0,0.0,77,0.00,CLR,SKC,0.00,WeatherDisplay:10.37,2013-02-25 06:13:00,
2013-02-24 23:18:00,25.8,19.6,30.15,NNW,337,0.0,0.0,77,0.00,CLR,SKC,0.00,WeatherDisplay:10.37,2013-02-25 06:18:00,
2013-02-24 23:23:00,25.8,19.6,30.15,NNW,337,0.0,0.0,77,0.00,CLR,SKC,0.00,WeatherDisplay:10.37,2013-02-25 06:23:00,
2013-02-24 23:28:00,25.7,19.8,30.15,NNW,337,0.0,0.0,78,0.00,CLR,SKC,0.00,WeatherDisplay:10.37,2013-02-25 06:28:00,
2013-02-24 23:34:00,25.5,19.3,30.15,NNW,337,0.0,0.0,77,0.00,CLR,SKC,0.00,WeatherDisplay:10.37,2013-02-25 06:34:00,
2013-02-24 23:39:00,25.4,19.2,30.15,NNW,337,1.1,0.0,77,0.00,CLR,SKC,0.00,WeatherDisplay:10.37,2013-02-25 06:39:00,
2013-02-24 23:44:00,25.4,19.5,30.14,NNW,337,0.0,0.0,78,0.00,CLR,SKC,0.00,WeatherDisplay:10.37,2013-02-25 06:44:00,
2013-02-24 23:49:00,25.5,19.9,30.14,NNW,337,0.0,0.0,79,0.00,CLR,SKC,0.00,WeatherDisplay:10.37,2013-02-25 06:49:00,
2013-02-24 23:54:00,25.5,19.3,30.14,NNW,337,0.0,0.0,77,0.00,CLR,SKC,0.00,WeatherDisplay:10.37,2013-02-25 06:54:00,
2013-02-24 23:59:00,25.6,20.0,30.14,NNW,337,0.0,0.0,79,0.00,CLR,SKC,0.00,WeatherDisplay:10.37,2013-02-25 06:59:00,